首页
METAR-TAF:

METAR-TAF

机场 :

哈里斯堡 / Middletown, 宾夕法尼亚州, 美国

纬度: 40-11-37N, 经度: 076-45-48W, 海拔: 95米

当前天气观测

该预报发布于41分钟前的07:56 UTC
风速5节,风向多变
温度 4°C
湿度 65%
气压 1011 hPa
能見度: 16.1公里
阴天层高于4500英尺

METAR: KMDT 260756Z VRB05KT 10SM OVC045 04/M02 A2986 RMK AO2 SLP114 T00441017

时间: 03:37 (08:37 UTC)

预报

该预报发布于3小时和1分钟前的05:36 UTC
预报有效从26日的 06点(UTC)到 27日的 06点(UTC)
风速5节,风向西
能見度: 10公里
散云层高于7000英尺
从 26日的 1400点(UTC)
风速9节,风向西
能見度: 10公里
多云层高于4000英尺

TAF: KMDT 260536Z 2606/2706 27005KT P6SM SCT070 FM261400 28009KT P6SM BKN040

超过4000个机场的气象观测和天气预报(METAR&TAF报告)。

可查询的气象台以黄色和红色小点在地图上表示。

将鼠标移到小点上方,可查看气象台名称。

然后点击查看天气观测和预报。

如需切换地图:点击带黑十字的绿色按钮放大地图;点击带横线的绿色按钮缩小地图;或者点击绿色箭头查看邻近地区的地图。


METAR-TAF: